Time;durP1;ratioP1;P1;durP2;ratioP2;P2;SDS_P1;SDS_P2;PMS_P1;PMS_P2;Temp;Humidity;BMP_temperature;BMP_pressure;BME280_temperature;BME280_humidity;BME280_pressure;Samples;Min_cycle;Max_cycle;Signal;HPM_P1;HPM_P2
2022/09/11 00:02:03;;;;;;;;;11.00;11.00;;;;;;;;5086100;27;50906;-56
2022/09/11 00:04:29;;;;;;;;;12.33;12.33;;;;;;;;5082796;27;52405;-55
2022/09/11 00:06:54;;;;;;;;;11.00;10.00;;;;;;;;5083024;27;51115;-54
2022/09/11 00:09:19;;;;;;;;;21.00;18.33;;;;;;;;5082961;27;51061;-55
2022/09/11 00:11:44;;;;;;;;;26.50;25.50;;;;;;;;5081242;27;51557;-55
2022/09/11 00:14:13;;;;;;;;;22.00;20.25;;;;;;;;5082190;27;52417;-58
2022/09/11 00:16:40;;;;;;;;;17.33;16.00;;;;;;;;5080260;27;51154;-57
2022/09/11 00:19:07;;;;;;;;;13.33;12.67;;;;;;;;5083885;27;51116;-54
2022/09/11 00:21:32;;;;;;;;;13.67;13.67;;;;;;;;5082767;27;51020;-54
2022/09/11 00:23:58;;;;;;;;;15.33;14.33;;;;;;;;5082528;27;51292;-54
2022/09/11 00:26:23;;;;;;;;;13.00;12.00;;;;;;;;5080896;27;51016;-55
2022/09/11 00:28:49;;;;;;;;;18.00;16.33;;;;;;;;5080051;27;51229;-54
2022/09/11 00:31:19;;;;;;;;;22.50;22.50;;;;;;;;5080543;27;51075;-53
2022/09/11 00:33:44;;;;;;;;;13.33;12.00;;;;;;;;5080809;27;54249;-55
2022/09/11 00:36:11;;;;;;;;;13.33;13.33;;;;;;;;5081028;27;51311;-56
2022/09/11 00:38:37;;;;;;;;;13.00;13.00;;;;;;;;5081579;27;51265;-55
2022/09/11 00:41:05;;;;;;;;;14.33;13.33;;;;;;;;5076044;27;52625;-52
2022/09/11 00:43:48;;;;;;;;;14.33;14.33;;;;;;;;5078672;27;51824;-57
2022/09/11 00:46:14;;;;;;;;;17.00;17.00;;;;;;;;5080286;27;51184;-53
2022/09/11 00:48:39;;;;;;;;;15.67;15.33;;;;;;;;5081925;27;52337;-54
2022/09/11 00:51:05;;;;;;;;;15.00;14.00;;;;;;;;5080722;27;52693;-54
2022/09/11 00:53:35;;;;;;;;;12.00;12.00;;;;;;;;5078602;27;52268;-53
2022/09/11 00:56:02;;;;;;;;;10.33;10.33;;;;;;;;5078904;27;51231;-54
2022/09/11 00:58:30;;;;;;;;;16.00;15.00;;;;;;;;5085105;27;51261;-55
2022/09/11 01:00:56;;;;;;;;;13.00;12.33;;;;;;;;5084176;27;51170;-55
2022/09/11 01:03:22;;;;;;;;;11.00;11.00;;;;;;;;5088381;27;51212;-53
2022/09/11 01:05:47;;;;;;;;;12.33;12.33;;;;;;;;5083344;27;51139;-55
2022/09/11 01:08:13;;;;;;;;;19.33;16.00;;;;;;;;5084446;27;51019;-55
2022/09/11 01:10:44;;;;;;;;;18.00;17.00;;;;;;;;5094528;27;51215;-53
2022/09/11 01:13:18;;;;;;;;;14.67;14.67;;;;;;;;5088146;27;50908;-53
2022/09/11 01:15:53;;;;;;;;;13.00;13.00;;;;;;;;5078853;27;51279;-54
2022/09/11 01:18:22;;;;;;;;;11.67;10.33;;;;;;;;5095911;27;51161;-55
2022/09/11 01:21:08;;;;;;;;;12.00;12.00;;;;;;;;5074285;27;51404;-57
2022/09/11 01:23:36;;;;;;;;;16.33;16.00;;;;;;;;5069104;27;51056;-53
2022/09/11 01:26:10;;;;;;;;;16.67;15.33;;;;;;;;5090285;27;51036;-55
2022/09/11 01:28:38;;;;;;;;;16.33;15.67;;;;;;;;5092717;27;51064;-54
2022/09/11 01:31:09;;;;;;;;;15.00;14.25;;;;;;;;5091884;27;51234;-54
2022/09/11 01:33:40;;;;;;;;;16.67;15.33;;;;;;;;5084062;27;52353;-53
2022/09/11 01:36:06;;;;;;;;;27.75;26.50;;;;;;;;5074929;27;51117;-53
2022/09/11 01:38:34;;;;;;;;;16.67;15.67;;;;;;;;5073529;27;51270;-54
2022/09/11 01:41:06;;;;;;;;;11.67;11.67;;;;;;;;5079948;27;51059;-60
2022/09/11 01:43:33;;;;;;;;;17.00;15.33;;;;;;;;5079607;27;52932;-53
2022/09/11 01:46:00;;;;;;;;;14.67;14.00;;;;;;;;5083620;27;51240;-54
2022/09/11 01:48:32;;;;;;;;;18.00;16.00;;;;;;;;5076254;27;50855;-55
2022/09/11 01:50:59;;;;;;;;;17.75;16.00;;;;;;;;5081807;27;51186;-54
2022/09/11 01:53:27;;;;;;;;;20.25;19.00;;;;;;;;5092317;27;51762;-52
2022/09/11 01:56:01;;;;;;;;;18.00;17.75;;;;;;;;5085675;27;50996;-54
2022/09/11 01:58:28;;;;;;;;;17.25;17.25;;;;;;;;5075113;27;51019;-54
2022/09/11 02:00:58;;;;;;;;;20.50;18.25;;;;;;;;5075080;27;51125;-54
2022/09/11 02:03:26;;;;;;;;;18.75;18.00;;;;;;;;5077835;27;51366;-54
2022/09/11 02:05:55;;;;;;;;;15.67;15.00;;;;;;;;5089709;27;51004;-54
2022/09/11 02:08:38;;;;;;;;;16.67;16.00;;;;;;;;5091237;27;51241;-55
2022/09/11 02:11:08;;;;;;;;;13.67;13.67;;;;;;;;5095484;27;51210;-54
2022/09/11 02:13:38;;;;;;;;;17.50;16.50;;;;;;;;5087144;27;51178;-53
2022/09/11 02:16:22;;;;;;;;;23.75;20.25;;;;;;;;5085138;27;51045;-54
2022/09/11 02:19:04;;;;;;;;;17.00;16.00;;;;;;;;5083799;27;51226;-54
2022/09/11 02:21:31;;;;;;;;;17.75;17.25;;;;;;;;5090460;27;51394;-54
2022/09/11 02:23:56;;;;;;;;;18.50;17.75;;;;;;;;5086415;27;51143;-54
2022/09/11 02:26:23;;;;;;;;;16.75;15.75;;;;;;;;5078841;27;52653;-54
2022/09/11 02:28:48;;;;;;;;;16.33;16.33;;;;;;;;5084755;27;50873;-54
2022/09/11 02:31:15;;;;;;;;;15.33;15.00;;;;;;;;5083786;27;51131;-55
2022/09/11 02:33:42;;;;;;;;;20.00;17.33;;;;;;;;5094783;27;52422;-54
2022/09/11 02:36:13;;;;;;;;;20.33;19.33;;;;;;;;5091015;27;51152;-54
2022/09/11 02:39:00;;;;;;;;;17.50;17.00;;;;;;;;5082889;27;50903;-54
2022/09/11 02:41:56;;;;;;;;;17.50;16.75;;;;;;;;5074502;27;51216;-55
2022/09/11 02:44:30;;;;;;;;;20.00;18.50;;;;;;;;5088471;27;51792;-54
2022/09/11 02:47:04;;;;;;;;;18.33;18.00;;;;;;;;5088471;27;51002;-55
2022/09/11 02:49:32;;;;;;;;;20.50;19.50;;;;;;;;5073866;27;51001;-55
2022/09/11 02:51:58;;;;;;;;;17.33;16.67;;;;;;;;5073589;27;51215;-55
2022/09/11 02:54:30;;;;;;;;;18.25;18.00;;;;;;;;5073447;27;52044;-55
2022/09/11 02:57:01;;;;;;;;;19.00;17.25;;;;;;;;5074770;27;51095;-53
2022/09/11 02:59:37;;;;;;;;;17.00;16.25;;;;;;;;5083209;27;51080;-55
2022/09/11 03:02:02;;;;;;;;;18.50;17.75;;;;;;;;5086827;27;51055;-55
2022/09/11 03:04:28;;;;;;;;;23.25;23.00;;;;;;;;5091854;27;52102;-54
2022/09/11 03:06:54;;;;;;;;;19.25;19.00;;;;;;;;5074861;27;51145;-55
2022/09/11 03:09:19;;;;;;;;;17.75;16.25;;;;;;;;5078310;27;51049;-54
2022/09/11 03:11:44;;;;;;;;;17.00;15.75;;;;;;;;5072209;27;50923;-54
2022/09/11 03:14:10;;;;;;;;;22.25;20.00;;;;;;;;5073437;27;51117;-54
2022/09/11 03:16:35;;;;;;;;;19.75;18.75;;;;;;;;5080043;27;51056;-54
2022/09/11 03:19:01;;;;;;;;;15.75;15.75;;;;;;;;5083972;27;51523;-54
2022/09/11 03:21:27;;;;;;;;;22.00;21.25;;;;;;;;5092571;27;51442;-54
2022/09/11 03:23:52;;;;;;;;;21.50;19.75;;;;;;;;5078836;27;52008;-53
2022/09/11 03:26:17;;;;;;;;;20.25;18.25;;;;;;;;5073294;27;51096;-54
2022/09/11 03:28:43;;;;;;;;;24.00;21.25;;;;;;;;5075911;27;51158;-55
2022/09/11 03:31:08;;;;;;;;;20.00;18.75;;;;;;;;5080584;27;51248;-54
2022/09/11 03:33:33;;;;;;;;;20.00;18.75;;;;;;;;5086810;27;52037;-54
2022/09/11 03:35:59;;;;;;;;;23.25;21.75;;;;;;;;5087043;27;51116;-54
2022/09/11 03:38:24;;;;;;;;;20.25;20.25;;;;;;;;5087606;27;51336;-55
2022/09/11 03:40:49;;;;;;;;;19.75;18.25;;;;;;;;5071884;27;51109;-54
2022/09/11 03:43:15;;;;;;;;;19.00;19.00;;;;;;;;5091623;27;51817;-55
2022/09/11 03:45:41;;;;;;;;;24.00;24.00;;;;;;;;5082703;27;51167;-53
2022/09/11 03:48:06;;;;;;;;;22.25;21.75;;;;;;;;5076561;27;51153;-54
2022/09/11 03:50:31;;;;;;;;;21.75;19.75;;;;;;;;5085250;27;51095;-55
2022/09/11 03:52:57;;;;;;;;;21.75;20.00;;;;;;;;5081952;27;51007;-55
2022/09/11 03:55:22;;;;;;;;;26.75;26.25;;;;;;;;5074566;27;51346;-53
2022/09/11 03:57:47;;;;;;;;;21.50;19.25;;;;;;;;5076271;27;51301;-55
2022/09/11 04:00:13;;;;;;;;;17.25;17.25;;;;;;;;5085778;27;51259;-54
2022/09/11 04:02:38;;;;;;;;;21.00;21.00;;;;;;;;5091166;27;52436;-54
2022/09/11 04:05:03;;;;;;;;;21.75;19.75;;;;;;;;5076510;27;50880;-55
2022/09/11 04:07:30;;;;;;;;;22.25;20.00;;;;;;;;5076411;27;51018;-54
2022/09/11 04:09:56;;;;;;;;;25.50;25.25;;;;;;;;5092589;27;51315;-54
2022/09/11 04:12:21;;;;;;;;;25.00;23.50;;;;;;;;5080035;27;52033;-55
2022/09/11 04:14:47;;;;;;;;;23.00;22.50;;;;;;;;5090648;27;51059;-56
2022/09/11 04:17:12;;;;;;;;;23.25;20.00;;;;;;;;5091123;27;51217;-58
2022/09/11 04:19:37;;;;;;;;;24.75;23.75;;;;;;;;5090702;27;51083;-56
2022/09/11 04:22:02;;;;;;;;;24.00;23.25;;;;;;;;5091853;27;51154;-57
2022/09/11 04:24:28;;;;;;;;;26.50;24.75;;;;;;;;5060134;28;51107;-55
2022/09/11 04:26:53;;;;;;;;;23.25;22.50;;;;;;;;5076840;27;51195;-54
2022/09/11 04:29:18;;;;;;;;;18.75;17.25;;;;;;;;5071202;27;51223;-55
2022/09/11 04:31:43;;;;;;;;;23.00;21.50;;;;;;;;5072473;27;51101;-54
2022/09/11 04:34:08;;;;;;;;;23.00;22.75;;;;;;;;5073667;27;51014;-54
2022/09/11 04:36:34;;;;;;;;;28.00;25.00;;;;;;;;5075096;27;51271;-55
2022/09/11 04:38:59;;;;;;;;;24.00;24.00;;;;;;;;5073267;27;51126;-54
2022/09/11 04:41:25;;;;;;;;;25.00;23.25;;;;;;;;5079286;27;53106;-54
2022/09/11 04:43:57;;;;;;;;;30.25;29.50;;;;;;;;5090420;27;50894;-53
2022/09/11 04:46:23;;;;;;;;;27.00;25.50;;;;;;;;5080496;27;50984;-53
2022/09/11 04:48:52;;;;;;;;;22.25;20.50;;;;;;;;5072770;27;51120;-52
2022/09/11 04:51:22;;;;;;;;;26.50;24.50;;;;;;;;5069783;27;51767;-54
2022/09/11 04:53:48;;;;;;;;;23.00;23.00;;;;;;;;5087091;27;51044;-54
2022/09/11 04:56:13;;;;;;;;;20.00;18.75;;;;;;;;5084632;27;50989;-51
2022/09/11 04:58:39;;;;;;;;;22.25;20.25;;;;;;;;5070886;27;51248;-51
2022/09/11 05:01:08;;;;;;;;;26.00;24.50;;;;;;;;5071696;27;51257;-54
2022/09/11 05:03:33;;;;;;;;;24.75;23.25;;;;;;;;5082027;27;51120;-54
2022/09/11 05:06:02;;;;;;;;;23.00;21.75;;;;;;;;5085110;27;50942;-53
2022/09/11 05:08:27;;;;;;;;;25.00;23.75;;;;;;;;5086109;27;51327;-54
2022/09/11 05:10:52;;;;;;;;;24.75;23.75;;;;;;;;5070859;27;53422;-53
2022/09/11 05:13:17;;;;;;;;;24.00;22.25;;;;;;;;5079343;27;51067;-52
2022/09/11 05:15:43;;;;;;;;;23.00;23.00;;;;;;;;5091014;27;51017;-53
2022/09/11 05:18:09;;;;;;;;;27.25;24.75;;;;;;;;5074157;27;51113;-53
2022/09/11 05:20:34;;;;;;;;;26.00;25.75;;;;;;;;5086927;27;52241;-55
2022/09/11 05:22:59;;;;;;;;;22.75;22.50;;;;;;;;5071827;27;51194;-54
2022/09/11 05:25:25;;;;;;;;;26.50;24.75;;;;;;;;5072960;27;51084;-52
2022/09/11 05:27:50;;;;;;;;;24.75;23.00;;;;;;;;5080660;27;51148;-53
2022/09/11 05:30:15;;;;;;;;;26.50;24.50;;;;;;;;5096102;27;52691;-53
2022/09/11 05:32:40;;;;;;;;;27.25;24.25;;;;;;;;5079441;27;51462;-53
2022/09/11 05:35:06;;;;;;;;;23.25;21.75;;;;;;;;5091253;27;50961;-56
2022/09/11 05:37:31;;;;;;;;;26.25;25.00;;;;;;;;5087702;27;51272;-55
2022/09/11 05:39:57;;;;;;;;;24.75;24.00;;;;;;;;5081493;27;52011;-54
2022/09/11 05:42:22;;;;;;;;;22.75;21.50;;;;;;;;5080954;27;50981;-54
2022/09/11 05:44:47;;;;;;;;;23.00;22.75;;;;;;;;5094449;27;51341;-54
2022/09/11 05:47:13;;;;;;;;;25.00;24.00;;;;;;;;5096239;27;51063;-54
2022/09/11 05:49:38;;;;;;;;;24.25;23.25;;;;;;;;5087024;27;51786;-54
2022/09/11 05:52:03;;;;;;;;;21.50;19.75;;;;;;;;5082221;27;51098;-54
2022/09/11 05:54:28;;;;;;;;;23.25;21.00;;;;;;;;5092786;27;50918;-54
2022/09/11 05:56:54;;;;;;;;;27.75;27.00;;;;;;;;5075253;27;51148;-54
2022/09/11 05:59:19;;;;;;;;;22.25;21.50;;;;;;;;5080351;27;52831;-54
2022/09/11 06:01:46;;;;;;;;;25.75;24.75;;;;;;;;5083354;27;51140;-53
2022/09/11 06:04:12;;;;;;;;;24.25;23.25;;;;;;;;5074824;27;51093;-54
2022/09/11 06:06:37;;;;;;;;;27.50;24.50;;;;;;;;5074907;27;52340;-53
2022/09/11 06:09:03;;;;;;;;;25.75;25.00;;;;;;;;5073244;27;51147;-54
2022/09/11 06:11:28;;;;;;;;;25.50;25.00;;;;;;;;5074362;27;51168;-54
2022/09/11 06:13:54;;;;;;;;;26.00;24.50;;;;;;;;5080400;27;52783;-55
2022/09/11 06:16:20;;;;;;;;;24.75;24.00;;;;;;;;5077869;27;51252;-54
2022/09/11 06:18:47;;;;;;;;;27.50;25.75;;;;;;;;5079321;27;51718;-53
2022/09/11 06:21:18;;;;;;;;;28.00;26.00;;;;;;;;5079139;27;51015;-56
2022/09/11 06:23:44;;;;;;;;;23.00;23.00;;;;;;;;5074635;27;51045;-54
2022/09/11 06:26:10;;;;;;;;;25.50;23.50;;;;;;;;5073585;27;51642;-54
2022/09/11 06:28:36;;;;;;;;;19.50;18.75;;;;;;;;5083068;27;51799;-54
2022/09/11 06:31:02;;;;;;;;;21.25;20.50;;;;;;;;5076206;27;51273;-52
2022/09/11 06:33:35;;;;;;;;;19.50;18.25;;;;;;;;5075614;27;51228;-52
2022/09/11 06:36:00;;;;;;;;;19.00;18.00;;;;;;;;5077730;27;51359;-53
2022/09/11 06:38:26;;;;;;;;;22.25;20.00;;;;;;;;5077685;27;51200;-54
2022/09/11 06:40:51;;;;;;;;;20.33;19.00;;;;;;;;5091034;27;51071;-54
2022/09/11 06:43:17;;;;;;;;;34.75;30.25;;;;;;;;5095397;27;51014;-52
2022/09/11 06:45:42;;;;;;;;;26.00;24.00;;;;;;;;5085821;27;51126;-54
2022/09/11 06:48:08;;;;;;;;;20.67;20.00;;;;;;;;5078883;27;51882;-53
2022/09/11 06:50:39;;;;;;;;;24.50;23.00;;;;;;;;5093164;27;51107;-56
2022/09/11 06:53:05;;;;;;;;;23.33;23.33;;;;;;;;5092007;27;51227;-54
2022/09/11 06:55:30;;;;;;;;;21.33;20.33;;;;;;;;5072835;27;50922;-54
2022/09/11 06:57:56;;;;;;;;;22.00;21.75;;;;;;;;5079346;27;52223;-53
2022/09/11 07:00:21;;;;;;;;;19.50;19.50;;;;;;;;5084958;27;51074;-53
2022/09/11 07:02:46;;;;;;;;;22.00;21.00;;;;;;;;5094931;27;51064;-54
2022/09/11 07:05:12;;;;;;;;;25.00;25.00;;;;;;;;5088302;27;51276;-55
2022/09/11 07:07:38;;;;;;;;;20.25;20.25;;;;;;;;5073880;27;51558;-54
2022/09/11 07:10:03;;;;;;;;;20.33;20.33;;;;;;;;5075702;27;51075;-54
2022/09/11 07:12:30;;;;;;;;;22.00;20.00;;;;;;;;5094627;27;50901;-54
2022/09/11 07:14:56;;;;;;;;;22.00;22.00;;;;;;;;5089738;27;51247;-56
2022/09/11 07:17:21;;;;;;;;;22.00;22.00;;;;;;;;5085415;27;53386;-55
2022/09/11 07:19:47;;;;;;;;;19.00;19.00;;;;;;;;5075704;27;51171;-54
2022/09/11 07:22:14;;;;;;;;;25.33;25.00;;;;;;;;5079656;27;51667;-54
2022/09/11 07:24:39;;;;;;;;;20.00;20.00;;;;;;;;5073470;27;50956;-55
2022/09/11 07:27:05;;;;;;;;;20.00;20.00;;;;;;;;5092828;27;51072;-56
2022/09/11 07:29:30;;;;;;;;;22.00;20.33;;;;;;;;5092005;27;51012;-54
2022/09/11 07:31:58;;;;;;;;;20.00;19.33;;;;;;;;5094420;27;51108;-56
2022/09/11 07:34:24;;;;;;;;;21.33;20.67;;;;;;;;5087804;27;51042;-54
2022/09/11 07:36:50;;;;;;;;;19.00;18.67;;;;;;;;5080064;27;51025;-54
2022/09/11 07:39:16;;;;;;;;;20.33;20.33;;;;;;;;5073862;27;51150;-54
2022/09/11 07:41:41;;;;;;;;;21.00;20.00;;;;;;;;5075382;27;51211;-53
2022/09/11 07:44:06;;;;;;;;;22.00;21.33;;;;;;;;5074553;27;51488;-53
2022/09/11 07:46:32;;;;;;;;;19.33;18.33;;;;;;;;5082701;27;52077;-52
2022/09/11 07:48:57;;;;;;;;;23.50;23.50;;;;;;;;5073154;27;51151;-52
2022/09/11 07:51:23;;;;;;;;;21.67;20.33;;;;;;;;5074730;27;51870;-52
2022/09/11 07:53:49;;;;;;;;;21.33;20.33;;;;;;;;5075860;27;51256;-53
2022/09/11 07:56:22;;;;;;;;;19.33;18.33;;;;;;;;5074500;27;51867;-53
2022/09/11 07:58:48;;;;;;;;;12.33;12.00;;;;;;;;5074292;27;51126;-53
2022/09/11 08:01:15;;;;;;;;;18.00;17.00;;;;;;;;5080869;27;51424;-53
2022/09/11 08:03:41;;;;;;;;;17.67;17.67;;;;;;;;5076370;27;50869;-55
2022/09/11 08:06:09;;;;;;;;;18.00;17.33;;;;;;;;5070825;28;53182;-55
2022/09/11 08:08:36;;;;;;;;;16.00;15.33;;;;;;;;5079301;27;50965;-54
2022/09/11 08:11:03;;;;;;;;;16.67;16.67;;;;;;;;5070857;27;51099;-54
2022/09/11 08:13:28;;;;;;;;;15.00;14.00;;;;;;;;5071889;27;51278;-54
2022/09/11 08:15:54;;;;;;;;;22.00;21.00;;;;;;;;5089369;27;51387;-55
2022/09/11 08:18:19;;;;;;;;;18.00;18.00;;;;;;;;5077641;27;51182;-55
2022/09/11 08:20:44;;;;;;;;;16.00;16.00;;;;;;;;5071963;27;51521;-52
2022/09/11 08:23:10;;;;;;;;;20.50;20.50;;;;;;;;5072780;27;51331;-53
2022/09/11 08:25:36;;;;;;;;;19.00;19.00;;;;;;;;5082762;27;51355;-54
2022/09/11 08:28:01;;;;;;;;;18.67;18.67;;;;;;;;5089822;27;51141;-53
2022/09/11 08:30:27;;;;;;;;;22.00;21.67;;;;;;;;5083939;27;51088;-53
2022/09/11 08:32:52;;;;;;;;;20.00;20.00;;;;;;;;5072996;27;50933;-53
2022/09/11 08:35:17;;;;;;;;;20.00;19.00;;;;;;;;5072492;27;52556;-54
2022/09/11 08:37:43;;;;;;;;;21.75;21.75;;;;;;;;5073713;27;51248;-52
2022/09/11 08:40:10;;;;;;;;;21.25;21.25;;;;;;;;5085608;27;51224;-52
2022/09/11 08:42:36;;;;;;;;;21.25;21.00;;;;;;;;5080097;27;51304;-55
2022/09/11 08:45:05;;;;;;;;;20.75;20.50;;;;;;;;5081795;27;52222;-55
2022/09/11 08:47:33;;;;;;;;;20.00;20.00;;;;;;;;5088151;27;51759;-54
2022/09/11 08:50:06;;;;;;;;;22.25;21.50;;;;;;;;5087020;27;51247;-53
2022/09/11 08:52:31;;;;;;;;;22.75;22.50;;;;;;;;5082560;27;51394;-54
2022/09/11 08:54:58;;;;;;;;;19.67;19.67;;;;;;;;5071578;27;51257;-54
2022/09/11 08:57:26;;;;;;;;;18.50;17.50;;;;;;;;5071233;27;51153;-59
2022/09/11 09:00:01;;;;;;;;;18.75;16.75;;;;;;;;5074505;27;50904;-57
2022/09/11 09:02:45;;;;;;;;;13.00;13.00;;;;;;;;5086152;27;51267;-58
2022/09/11 09:05:16;;;;;;;;;17.75;17.50;;;;;;;;5086814;27;52217;-59
2022/09/11 09:08:03;;;;;;;;;17.00;16.00;;;;;;;;5083220;27;51171;-57
2022/09/11 09:10:41;;;;;;;;;17.00;17.00;;;;;;;;5087007;27;51091;-57
2022/09/11 09:13:25;;;;;;;;;23.33;22.67;;;;;;;;5077203;27;51245;-59
2022/09/11 09:16:03;;;;;;;;;16.00;15.67;;;;;;;;5073300;27;52363;-58
2022/09/11 09:18:38;;;;;;;;;19.67;19.33;;;;;;;;5086286;27;51108;-58
2022/09/11 09:21:09;;;;;;;;;15.33;14.67;;;;;;;;5082905;27;51280;-58
2022/09/11 09:23:38;;;;;;;;;18.00;16.00;;;;;;;;5091907;27;50997;-58
2022/09/11 09:26:04;;;;;;;;;19.67;19.00;;;;;;;;5074853;27;52181;-57
2022/09/11 09:28:32;;;;;;;;;18.33;18.33;;;;;;;;5076227;27;51183;-58
2022/09/11 09:31:02;;;;;;;;;15.00;15.00;;;;;;;;5076961;27;51000;-58
2022/09/11 09:33:28;;;;;;;;;17.00;16.67;;;;;;;;5075596;27;51311;-58
2022/09/11 09:35:53;;;;;;;;;21.00;21.00;;;;;;;;5090688;27;51098;-58
2022/09/11 09:38:25;;;;;;;;;20.75;20.25;;;;;;;;5078784;27;51155;-59
2022/09/11 09:40:58;;;;;;;;;16.33;15.67;;;;;;;;5077002;27;51211;-57
2022/09/11 09:43:34;;;;;;;;;19.33;18.33;;;;;;;;5078572;27;51270;-56
2022/09/11 09:46:20;;;;;;;;;15.33;14.67;;;;;;;;5086050;27;51101;-55
2022/09/11 09:48:45;;;;;;;;;19.00;19.00;;;;;;;;5076501;27;50961;-56
2022/09/11 09:51:13;;;;;;;;;19.00;17.67;;;;;;;;5086092;27;51160;-55
2022/09/11 09:53:42;;;;;;;;;20.00;19.00;;;;;;;;5075876;27;51192;-55
2022/09/11 09:56:09;;;;;;;;;19.00;18.00;;;;;;;;5076336;27;51022;-58
2022/09/11 09:58:47;;;;;;;;;24.25;23.75;;;;;;;;5077374;27;50921;-57
2022/09/11 10:01:32;;;;;;;;;21.00;21.00;;;;;;;;5081231;27;51038;-56
2022/09/11 10:04:09;;;;;;;;;17.25;17.25;;;;;;;;5086014;27;51358;-58
2022/09/11 10:06:35;;;;;;;;;16.00;16.00;;;;;;;;5077034;27;51455;-56
2022/09/11 10:09:00;;;;;;;;;17.33;17.33;;;;;;;;5091517;27;51043;-55
2022/09/11 10:11:29;;;;;;;;;17.00;17.00;;;;;;;;5076931;27;50917;-58
2022/09/11 10:13:54;;;;;;;;;15.00;15.00;;;;;;;;5084253;27;51270;-56
2022/09/11 10:16:22;;;;;;;;;17.67;17.00;;;;;;;;5090124;27;51740;-57
2022/09/11 10:18:47;;;;;;;;;14.00;13.67;;;;;;;;5090555;27;51149;-54
2022/09/11 10:21:14;;;;;;;;;15.00;15.00;;;;;;;;5090395;27;50886;-57
2022/09/11 10:23:49;;;;;;;;;18.00;16.33;;;;;;;;5085119;27;51286;-54
2022/09/11 10:26:16;;;;;;;;;18.67;16.67;;;;;;;;5078040;27;51229;-55
2022/09/11 10:28:41;;;;;;;;;9.00;8.33;;;;;;;;5094709;27;50987;-56
2022/09/11 10:31:07;;;;;;;;;13.67;13.67;;;;;;;;5073996;27;51333;-56
2022/09/11 10:33:38;;;;;;;;;10.33;10.33;;;;;;;;5081068;27;51128;-57
2022/09/11 10:36:06;;;;;;;;;12.33;11.00;;;;;;;;5074828;27;52801;-56
2022/09/11 10:38:37;;;;;;;;;14.33;12.67;;;;;;;;5090426;27;51347;-57
2022/09/11 10:41:11;;;;;;;;;9.67;9.67;;;;;;;;5084085;27;50965;-57
2022/09/11 10:43:46;;;;;;;;;11.50;11.50;;;;;;;;5078356;27;51039;-57
2022/09/11 10:46:17;;;;;;;;;10.00;9.67;;;;;;;;5077022;27;52056;-58
2022/09/11 10:48:50;;;;;;;;;7.00;6.00;;;;;;;;5081582;27;50954;-56
2022/09/11 10:51:16;;;;;;;;;9.33;9.33;;;;;;;;5090080;27;50850;-56
2022/09/11 10:53:49;;;;;;;;;7.00;7.00;;;;;;;;5083947;27;51117;-57
2022/09/11 10:56:14;;;;;;;;;7.00;7.00;;;;;;;;5085537;27;53773;-57
2022/09/11 10:58:41;;;;;;;;;10.67;10.00;;;;;;;;5092783;27;50999;-55
2022/09/11 11:01:08;;;;;;;;;7.33;7.33;;;;;;;;5089589;27;50939;-55
2022/09/11 11:03:33;;;;;;;;;9.33;9.33;;;;;;;;5080678;27;51129;-54
2022/09/11 11:06:14;;;;;;;;;6.67;6.67;;;;;;;;5073462;27;52975;-56
2022/09/11 11:08:39;;;;;;;;;4.00;4.00;;;;;;;;5075119;27;51146;-57
2022/09/11 11:11:16;;;;;;;;;5.00;5.00;;;;;;;;5080005;27;51249;-55
2022/09/11 11:14:00;;;;;;;;;7.00;7.00;;;;;;;;5073702;27;51222;-56
2022/09/11 11:16:45;;;;;;;;;7.00;6.67;;;;;;;;5082344;27;51156;-56
2022/09/11 11:19:13;;;;;;;;;6.33;6.33;;;;;;;;5071537;27;51103;-53
2022/09/11 11:21:51;;;;;;;;;9.00;8.33;;;;;;;;5072028;27;50931;-55
2022/09/11 11:24:31;;;;;;;;;10.67;9.67;;;;;;;;5079124;27;51210;-56
2022/09/11 11:27:08;;;;;;;;;10.00;9.67;;;;;;;;5081843;27;52898;-56
2022/09/11 11:29:40;;;;;;;;;7.00;6.67;;;;;;;;5090532;27;50950;-57
2022/09/11 11:32:14;;;;;;;;;8.00;7.33;;;;;;;;5080272;27;51160;-55
2022/09/11 11:34:40;;;;;;;;;7.33;6.67;;;;;;;;5084439;27;51082;-53
2022/09/11 11:37:18;;;;;;;;;7.00;7.00;;;;;;;;5080718;27;51325;-55
2022/09/11 11:39:47;;;;;;;;;5.00;5.00;;;;;;;;5080837;27;51172;-54
2022/09/11 11:42:22;;;;;;;;;9.33;9.33;;;;;;;;5087477;27;51036;-55
2022/09/11 11:45:02;;;;;;;;;9.33;9.33;;;;;;;;5084693;27;51170;-52
2022/09/11 11:47:31;;;;;;;;;7.33;7.33;;;;;;;;5077476;27;51858;-50
2022/09/11 11:50:12;;;;;;;;;10.00;9.67;;;;;;;;5084436;27;50984;-52
2022/09/11 11:52:41;;;;;;;;;8.67;8.67;;;;;;;;5080549;27;51007;-56
2022/09/11 11:55:19;;;;;;;;;6.00;6.00;;;;;;;;5074328;27;51176;-53
2022/09/11 11:57:50;;;;;;;;;10.00;9.00;;;;;;;;5092974;27;51128;-54
2022/09/11 12:00:16;;;;;;;;;8.33;8.33;;;;;;;;5092186;27;51145;-53
2022/09/11 12:02:49;;;;;;;;;9.00;8.00;;;;;;;;5072792;28;51249;-54
2022/09/11 12:05:22;;;;;;;;;8.33;8.33;;;;;;;;5073132;27;51075;-55
2022/09/11 12:07:48;;;;;;;;;9.00;8.33;;;;;;;;5071856;28;52208;-55
2022/09/11 12:10:32;;;;;;;;;8.00;7.33;;;;;;;;5081891;27;51110;-53
2022/09/11 12:13:01;;;;;;;;;8.67;8.67;;;;;;;;5093056;27;50847;-58
2022/09/11 12:15:30;;;;;;;;;9.67;9.00;;;;;;;;5091580;27;51309;-55
2022/09/11 12:18:00;;;;;;;;;8.67;8.00;;;;;;;;5086571;27;51830;-53
2022/09/11 12:20:38;;;;;;;;;8.00;8.00;;;;;;;;5090920;27;51128;-52
2022/09/11 12:23:05;;;;;;;;;6.33;5.67;;;;;;;;5092442;27;50989;-54
2022/09/11 12:25:34;;;;;;;;;8.00;7.33;;;;;;;;5091097;27;51392;-54
2022/09/11 12:28:09;;;;;;;;;7.00;7.00;;;;;;;;5095392;27;53333;-55
2022/09/11 12:30:54;;;;;;;;;9.00;8.00;;;;;;;;5078826;27;50950;-53
2022/09/11 12:33:38;;;;;;;;;8.67;8.67;;;;;;;;5071732;27;51148;-57
2022/09/11 12:36:06;;;;;;;;;6.00;6.00;;;;;;;;5072677;27;50994;-54
2022/09/11 12:38:57;;;;;;;;;6.00;5.67;;;;;;;;5089287;27;52451;-54
2022/09/11 12:41:26;;;;;;;;;8.00;8.00;;;;;;;;5083201;27;51203;-54
2022/09/11 12:43:53;;;;;;;;;7.00;7.00;;;;;;;;5091181;27;50977;-55
2022/09/11 12:46:21;;;;;;;;;8.67;7.33;;;;;;;;5078674;27;51067;-54
2022/09/11 12:49:06;;;;;;;;;6.33;6.33;;;;;;;;5071605;27;51032;-53
2022/09/11 12:51:31;;;;;;;;;5.00;5.00;;;;;;;;5076363;27;51445;-52
2022/09/11 12:53:59;;;;;;;;;8.33;8.33;;;;;;;;5084509;27;52704;-54
2022/09/11 12:56:25;;;;;;;;;4.67;4.67;;;;;;;;5071439;27;50890;-54
2022/09/11 12:58:53;;;;;;;;;4.33;4.33;;;;;;;;5069077;28;51898;-54
2022/09/11 13:01:21;;;;;;;;;9.00;9.00;;;;;;;;5080825;27;51056;-55
2022/09/11 13:04:02;;;;;;;;;6.33;6.00;;;;;;;;5085994;27;50978;-53
2022/09/11 13:06:39;;;;;;;;;7.00;7.00;;;;;;;;5074861;27;51225;-52
2022/09/11 13:09:05;;;;;;;;;7.33;7.00;;;;;;;;5083532;27;51198;-54
2022/09/11 13:11:34;;;;;;;;;8.00;8.00;;;;;;;;5089102;27;51080;-51
2022/09/11 13:14:00;;;;;;;;;6.00;6.00;;;;;;;;5091476;27;51041;-55
2022/09/11 13:16:27;;;;;;;;;7.33;7.00;;;;;;;;5090013;27;51167;-52
2022/09/11 13:19:12;;;;;;;;;7.67;6.00;;;;;;;;5070685;27;51915;-53
2022/09/11 13:21:38;;;;;;;;;5.33;4.67;;;;;;;;5070639;27;51036;-56
2022/09/11 13:24:20;;;;;;;;;5.33;5.33;;;;;;;;5075583;27;51128;-53
2022/09/11 13:26:45;;;;;;;;;6.00;6.00;;;;;;;;5071559;27;52121;-56
2022/09/11 13:29:12;;;;;;;;;7.00;7.00;;;;;;;;5087965;27;51380;-55
2022/09/11 13:31:38;;;;;;;;;10.00;9.67;;;;;;;;5069072;27;51154;-54
2022/09/11 13:34:05;;;;;;;;;7.00;7.00;;;;;;;;5090242;27;50965;-54
2022/09/11 13:36:33;;;;;;;;;8.67;8.67;;;;;;;;5090841;27;51132;-55
2022/09/11 13:39:00;;;;;;;;;6.67;6.00;;;;;;;;5091010;27;53279;-54
2022/09/11 13:41:28;;;;;;;;;7.00;7.00;;;;;;;;5087187;27;51202;-55
2022/09/11 13:43:58;;;;;;;;;5.00;5.00;;;;;;;;5085047;27;51113;-56
2022/09/11 13:46:30;;;;;;;;;1.00;1.00;;;;;;;;5070843;27;50870;-54
2022/09/11 13:49:15;;;;;;;;;5.00;5.00;;;;;;;;5070150;27;52170;-53
2022/09/11 13:51:45;;;;;;;;;5.67;5.67;;;;;;;;5075916;27;51234;-53
2022/09/11 13:54:13;;;;;;;;;6.00;5.00;;;;;;;;5083916;27;51130;-54
2022/09/11 13:56:45;;;;;;;;;5.00;5.00;;;;;;;;5070140;27;50950;-54
2022/09/11 13:59:24;;;;;;;;;4.67;4.67;;;;;;;;5090649;27;52989;-54
2022/09/11 14:01:51;;;;;;;;;4.00;3.33;;;;;;;;5088101;27;50998;-54
2022/09/11 14:04:17;;;;;;;;;3.33;3.33;;;;;;;;5071736;27;51227;-54
2022/09/11 14:06:44;;;;;;;;;6.00;6.00;;;;;;;;5086953;27;50818;-54
2022/09/11 14:09:16;;;;;;;;;4.67;4.67;;;;;;;;5093580;27;52080;-54
2022/09/11 14:11:42;;;;;;;;;5.00;4.33;;;;;;;;5094424;27;51106;-54
2022/09/11 14:14:11;;;;;;;;;5.00;5.00;;;;;;;;5085812;27;50968;-53
2022/09/11 14:16:38;;;;;;;;;3.67;3.67;;;;;;;;5081712;27;51258;-54
2022/09/11 14:19:03;;;;;;;;;4.67;4.67;;;;;;;;5073697;27;51945;-53
2022/09/11 14:21:38;;;;;;;;;5.00;5.00;;;;;;;;5087029;27;51415;-53
2022/09/11 14:24:23;;;;;;;;;3.67;3.33;;;;;;;;5093817;27;50989;-53
2022/09/11 14:26:48;;;;;;;;;2.00;2.00;;;;;;;;5094061;27;51102;-55
2022/09/11 14:29:23;;;;;;;;;4.00;4.00;;;;;;;;5082563;27;51292;-54
2022/09/11 14:31:52;;;;;;;;;4.00;4.00;;;;;;;;5093658;27;50990;-54
2022/09/11 14:34:17;;;;;;;;;4.00;4.00;;;;;;;;5093763;27;51081;-54